createdAt,value
2019-05-03T00:01:19.387Z,134.03
2019-05-03T00:03:24.189Z,132.37
2019-05-03T00:05:38.763Z,127.83
2019-05-03T00:07:43.761Z,127.53
2019-05-03T00:09:48.122Z,125.73
2019-05-03T00:11:52.865Z,121.57
2019-05-03T00:13:57.951Z,117.17
2019-05-03T00:16:12.125Z,115.37
2019-05-03T00:18:18.785Z,113.00
2019-05-03T00:20:26.321Z,113.57
2019-05-03T00:22:32.372Z,109.33
2019-05-03T00:24:36.796Z,104.60
2019-05-03T00:26:42.334Z,101.80
2019-05-03T00:28:47.094Z,100.57
2019-05-03T00:30:51.834Z,100.90
2019-05-03T00:32:56.729Z,98.63
2019-05-03T00:35:04.233Z,100.70
2019-05-03T00:37:13.923Z,96.27
2019-05-03T00:39:32.468Z,92.60
2019-05-03T00:41:36.769Z,88.70
2019-05-03T00:43:42.367Z,86.20
2019-05-03T00:45:47.162Z,86.10
2019-05-03T00:47:52.760Z,87.70
2019-05-03T00:49:57.302Z,82.30
2019-05-03T00:52:02.332Z,82.33
2019-05-03T00:54:08.988Z,79.50
2019-05-03T00:56:15.865Z,80.30
2019-05-03T00:58:23.649Z,71.87
2019-05-03T01:00:28.271Z,73.30
2019-05-03T01:02:32.623Z,72.40
2019-05-03T01:04:37.130Z,70.87
2019-05-03T01:06:42.329Z,71.43
2019-05-03T01:08:46.825Z,68.70
2019-05-03T01:10:51.850Z,65.60
2019-05-03T01:12:56.408Z,64.60
2019-05-03T01:15:02.637Z,63.90
2019-05-03T01:17:08.231Z,62.13
2019-05-03T01:19:15.138Z,61.03
2019-05-03T01:21:24.491Z,58.10
2019-05-03T01:23:28.762Z,60.60
2019-05-03T01:25:35.549Z,58.97
2019-05-03T01:27:39.521Z,57.97
2019-05-03T01:29:43.858Z,56.10
2019-05-03T01:31:48.574Z,54.90
2019-05-03T01:33:53.012Z,55.23
2019-05-03T01:35:57.620Z,54.40
2019-05-03T01:38:02.682Z,53.60
2019-05-03T01:40:09.886Z,52.20
2019-05-03T01:42:16.074Z,48.83
2019-05-03T01:44:22.015Z,48.90
2019-05-03T01:46:27.894Z,47.43
2019-05-03T01:48:52.217Z,47.80
2019-05-03T01:51:23.649Z,47.27
2019-05-03T01:53:29.297Z,45.80
2019-05-03T01:55:52.657Z,44.00
2019-05-03T01:57:57.560Z,43.90
2019-05-03T02:00:02.935Z,44.90
2019-05-03T02:02:25.437Z,43.13
2019-05-03T02:04:37.857Z,42.53
2019-05-03T02:06:44.261Z,40.10
2019-05-03T02:08:52.178Z,40.33
2019-05-03T02:10:59.066Z,39.17
2019-05-03T02:13:03.509Z,38.50
2019-05-03T02:15:12.574Z,38.17
2019-05-03T02:17:22.562Z,39.30
2019-05-03T02:19:26.773Z,36.33
2019-05-03T02:21:32.217Z,35.87
2019-05-03T02:23:36.901Z,37.07
2019-05-03T02:25:41.865Z,36.87
2019-05-03T02:27:46.861Z,33.40
2019-05-03T02:29:52.432Z,34.80
2019-05-03T02:31:57.308Z,32.97
2019-05-03T02:34:03.520Z,32.70
2019-05-03T02:36:13.603Z,32.93
2019-05-03T02:38:27.784Z,31.13
2019-05-03T02:40:33.924Z,29.60
2019-05-03T02:42:38.461Z,29.87
2019-05-03T02:44:42.836Z,30.77
2019-05-03T02:47:05.793Z,28.27
2019-05-03T02:49:28.351Z,29.43
2019-05-03T02:51:35.820Z,27.00
2019-05-03T02:53:39.222Z,28.10
2019-05-03T02:55:45.520Z,27.03
2019-05-03T02:57:49.766Z,25.50
2019-05-03T02:59:55.008Z,25.40
2019-05-03T03:01:59.225Z,25.30
2019-05-03T03:04:05.283Z,26.23
2019-05-03T03:06:11.647Z,23.90
2019-05-03T03:08:19.095Z,24.60
2019-05-03T03:10:26.502Z,23.57
2019-05-03T03:12:35.391Z,22.63
2019-05-03T03:14:38.152Z,22.70
2019-05-03T03:16:45.524Z,22.10
2019-05-03T03:18:49.432Z,22.17
2019-05-03T03:20:55.356Z,21.50
2019-05-03T03:22:59.632Z,22.23
2019-05-03T03:25:06.153Z,21.63
2019-05-03T03:27:12.657Z,20.93
2019-05-03T03:29:18.650Z,20.93
2019-05-03T03:31:31.600Z,19.87
2019-05-03T03:33:40.321Z,19.47
2019-05-03T03:35:48.945Z,19.20
2019-05-03T03:37:51.480Z,18.67
2019-05-03T03:39:56.264Z,18.70
2019-05-03T03:42:00.985Z,17.80
2019-05-03T03:44:05.917Z,18.67
2019-05-03T03:46:15.869Z,17.23
2019-05-03T03:48:26.604Z,16.40
2019-05-03T03:50:31.725Z,17.53
2019-05-03T03:52:36.166Z,15.90
2019-05-03T03:54:41.002Z,18.20
2019-05-03T03:56:56.074Z,17.23
2019-05-03T03:58:51.100Z,16.07
2019-05-03T04:00:55.662Z,15.20
2019-05-03T04:03:00.073Z,15.60
2019-05-03T04:05:05.663Z,15.60
2019-05-03T04:07:15.494Z,15.23
2019-05-03T04:09:31.060Z,11.57
2019-05-03T04:11:35.297Z,11.73
2019-05-03T04:13:41.874Z,12.27
2019-05-03T04:16:09.298Z,9.40
2019-05-03T04:18:27.785Z,9.10
2019-05-03T04:20:35.977Z,10.03
2019-05-03T04:22:41.438Z,9.10
2019-05-03T04:24:46.204Z,9.23
2019-05-03T04:26:56.231Z,8.67
2019-05-03T04:29:00.463Z,9.90
2019-05-03T04:31:06.456Z,9.23
2019-05-03T04:33:23.344Z,9.03
2019-05-03T04:35:27.743Z,9.63
2019-05-03T04:37:35.907Z,8.57
2019-05-03T04:39:40.099Z,7.77
2019-05-03T04:41:45.356Z,8.53
2019-05-03T04:43:50.192Z,8.20
2019-05-03T04:46:12.173Z,7.83
2019-05-03T04:48:25.404Z,7.30
2019-05-03T04:50:30.351Z,7.90
2019-05-03T04:52:36.172Z,7.03
2019-05-03T04:54:51.081Z,7.00
2019-05-03T04:56:56.220Z,7.47
2019-05-03T04:59:00.617Z,6.93
2019-05-03T05:01:06.238Z,6.73
2019-05-03T05:03:15.086Z,6.50
2019-05-03T05:05:26.205Z,6.07
2019-05-03T05:07:30.595Z,6.30
2019-05-03T05:09:35.361Z,6.40
2019-05-03T05:11:39.677Z,6.20
2019-05-03T05:13:45.765Z,6.20
2019-05-03T05:15:50.812Z,5.90
2019-05-03T05:18:10.588Z,6.20
2019-05-03T05:20:26.142Z,5.73
2019-05-03T05:22:32.033Z,5.47
2019-05-03T05:24:36.354Z,5.27
2019-05-03T05:27:07.273Z,5.37
2019-05-03T05:29:17.830Z,10.90
2019-05-03T05:31:22.704Z,191.47
2019-05-03T05:33:29.941Z,270.83
2019-05-03T05:35:35.247Z,182.43
2019-05-03T05:37:39.601Z,155.90
2019-05-03T05:39:44.705Z,123.47
2019-05-03T05:41:49.504Z,332.17
2019-05-03T05:43:54.973Z,181.53
2019-05-03T05:45:59.348Z,141.80
2019-05-03T05:48:08.185Z,98.90
2019-05-03T05:50:25.367Z,89.07
2019-05-03T05:52:30.210Z,71.43
2019-05-03T05:54:35.213Z,66.10
2019-05-03T05:56:47.865Z,68.23
2019-05-03T05:58:59.415Z,76.60
2019-05-03T06:01:24.892Z,152.67
2019-05-03T06:03:28.984Z,257.23
2019-05-03T06:05:35.417Z,273.63
2019-05-03T06:07:47.115Z,333.10
2019-05-03T06:10:05.336Z,214.20
2019-05-03T06:12:26.702Z,200.67
2019-05-03T06:14:38.817Z,141.50
2019-05-03T06:17:06.372Z,128.53
2019-05-03T06:19:30.944Z,120.77
2019-05-03T06:21:54.824Z,122.67
2019-05-03T06:24:04.680Z,103.10
2019-05-03T06:26:28.189Z,102.50
2019-05-03T06:28:35.313Z,114.90
2019-05-03T06:31:04.879Z,83.27
2019-05-03T06:33:09.224Z,262.13
2019-05-03T06:35:24.263Z,262.00
2019-05-03T06:37:30.844Z,333.70
2019-05-03T06:39:35.303Z,240.20
2019-05-03T06:41:39.851Z,168.77
2019-05-03T06:43:45.004Z,132.40
2019-05-03T06:45:50.631Z,118.20
2019-05-03T06:47:55.292Z,98.87
2019-05-03T06:50:00.235Z,99.70
2019-05-03T06:52:05.967Z,615.87
2019-05-03T06:54:15.531Z,413.40
2019-05-03T06:56:29.077Z,607.57
2019-05-03T06:58:35.804Z,415.20
2019-05-03T07:01:00.594Z,219.07
2019-05-03T07:03:35.448Z,169.07
2019-05-03T07:05:57.377Z,159.40
2019-05-03T07:08:25.393Z,115.03
2019-05-03T07:10:35.283Z,113.97
2019-05-03T07:12:57.213Z,131.10
2019-05-03T07:15:10.211Z,106.93
2019-05-03T07:17:17.896Z,101.13
2019-05-03T07:19:29.192Z,65.80
2019-05-03T07:21:35.422Z,83.17
2019-05-03T07:23:39.975Z,73.80
2019-05-03T07:25:44.820Z,64.80
2019-05-03T07:27:50.502Z,85.77
2019-05-03T07:30:06.571Z,74.07
2019-05-03T07:32:24.806Z,65.07
2019-05-03T07:34:34.934Z,61.67
2019-05-03T07:36:44.681Z,57.00
2019-05-03T07:38:51.952Z,143.00
2019-05-03T07:41:01.620Z,223.10
2019-05-03T07:43:20.010Z,234.03
2019-05-03T07:45:25.602Z,241.43
2019-05-03T07:47:30.865Z,147.53
2019-05-03T07:49:35.675Z,163.03
2019-05-03T07:51:40.385Z,133.63
2019-05-03T07:53:45.224Z,131.33
2019-05-03T07:56:14.948Z,123.23
2019-05-03T07:58:25.187Z,90.73
2019-05-03T08:00:29.160Z,77.00
2019-05-03T08:02:35.815Z,79.23
2019-05-03T08:04:40.243Z,72.37
2019-05-03T08:06:46.271Z,68.73
2019-05-03T08:08:51.132Z,74.00
2019-05-03T08:10:55.880Z,73.70
2019-05-03T08:13:04.611Z,69.80
2019-05-03T08:15:12.024Z,60.93
2019-05-03T08:17:16.716Z,68.10
2019-05-03T08:19:27.031Z,163.50
2019-05-03T08:21:30.773Z,281.97
2019-05-03T08:23:37.702Z,232.00
2019-05-03T08:25:44.542Z,225.70
2019-05-03T08:27:48.589Z,242.50
2019-05-03T08:29:53.196Z,138.57
2019-05-03T08:32:17.665Z,135.73
2019-05-03T08:34:45.287Z,103.27
2019-05-03T08:36:58.098Z,84.50
2019-05-03T08:39:05.348Z,75.13
2019-05-03T08:41:14.494Z,209.20
2019-05-03T08:43:22.879Z,255.40
2019-05-03T08:45:30.470Z,388.70
2019-05-03T08:47:34.766Z,195.17
2019-05-03T08:49:39.306Z,170.63
2019-05-03T08:51:44.408Z,134.77
2019-05-03T08:53:48.855Z,132.33
2019-05-03T08:55:55.216Z,98.20
2019-05-03T08:57:59.065Z,86.77
2019-05-03T09:00:05.287Z,87.30
2019-05-03T09:02:17.310Z,70.40
2019-05-03T09:04:36.280Z,83.27
2019-05-03T09:06:30.681Z,77.20
2019-05-03T09:08:35.533Z,67.13
2019-05-03T09:11:02.491Z,73.23
2019-05-03T09:13:14.838Z,62.47
2019-05-03T09:15:24.618Z,56.00
2019-05-03T09:17:30.182Z,56.20
2019-05-03T09:19:34.820Z,55.83
2019-05-03T09:21:39.086Z,45.20
2019-05-03T09:23:45.066Z,49.43
2019-05-03T09:25:49.612Z,52.73
2019-05-03T09:27:55.248Z,44.10
2019-05-03T09:29:59.864Z,47.50
2019-05-03T09:32:05.777Z,42.23
2019-05-03T09:34:12.328Z,306.30
2019-05-03T09:36:17.623Z,382.37
2019-05-03T09:38:25.726Z,361.93
2019-05-03T09:40:30.249Z,233.83
2019-05-03T09:42:35.285Z,188.47
2019-05-03T09:44:40.110Z,128.33
2019-05-03T09:46:44.727Z,100.03
2019-05-03T09:48:49.453Z,112.37
2019-05-03T09:50:55.645Z,76.20
2019-05-03T09:53:02.916Z,79.43
2019-05-03T09:55:14.534Z,78.40
2019-05-03T09:57:24.744Z,62.40
2019-05-03T09:59:29.871Z,73.00
2019-05-03T10:01:34.735Z,49.47
2019-05-03T10:03:40.130Z,46.53
2019-05-03T10:05:45.886Z,47.87
2019-05-03T10:07:50.702Z,44.40
2019-05-03T10:09:55.534Z,42.43
2019-05-03T10:12:05.513Z,43.67
2019-05-03T10:14:15.579Z,37.17
2019-05-03T10:16:30.667Z,33.27
2019-05-03T10:18:35.526Z,37.67
2019-05-03T10:20:40.653Z,70.70
2019-05-03T10:22:45.318Z,32.50
2019-05-03T10:24:54.915Z,156.27
2019-05-03T10:27:01.420Z,36.70
2019-05-03T10:29:06.599Z,26.80
2019-05-03T10:31:13.599Z,30.40
2019-05-03T10:33:26.108Z,29.23
2019-05-03T10:35:31.217Z,27.40
2019-05-03T10:37:37.883Z,23.70
2019-05-03T10:39:42.457Z,18.33
2019-05-03T10:41:47.168Z,20.97
2019-05-03T10:43:51.519Z,378.90
2019-05-03T10:45:56.476Z,30.50
2019-05-03T10:48:00.881Z,25.60
2019-05-03T10:50:07.697Z,23.30
2019-05-03T10:52:17.773Z,19.90
2019-05-03T10:54:23.816Z,18.93
2019-05-03T10:56:47.617Z,132.23
2019-05-03T10:59:07.089Z,17.83
2019-05-03T11:01:15.898Z,14.97
2019-05-03T11:03:23.753Z,109.73
2019-05-03T11:05:28.397Z,63.10
2019-05-03T11:07:34.575Z,368.50
2019-05-03T11:09:48.576Z,28.93
2019-05-03T11:11:45.410Z,14.03
2019-05-03T11:13:49.751Z,200.90
2019-05-03T11:15:54.935Z,122.17
2019-05-03T11:17:59.402Z,16.17
2019-05-03T11:20:05.297Z,10.83
2019-05-03T11:22:14.620Z,543.50
2019-05-03T11:24:27.163Z,256.67
2019-05-03T11:26:29.586Z,190.97
2019-05-03T11:28:35.352Z,132.37
2019-05-03T11:30:52.271Z,107.57
2019-05-03T11:32:55.607Z,85.80
2019-05-03T11:35:24.735Z,67.27
2019-05-03T11:37:46.866Z,51.10
2019-05-03T11:39:52.181Z,56.23
2019-05-03T11:41:58.305Z,40.83
2019-05-03T11:44:21.687Z,43.13
2019-05-03T11:46:29.020Z,41.43
2019-05-03T11:48:34.854Z,38.73
2019-05-03T11:50:40.157Z,31.27
2019-05-03T11:52:47.108Z,29.37
2019-05-03T11:54:50.547Z,33.07
2019-05-03T11:56:55.632Z,26.53
2019-05-03T11:59:00.073Z,23.17
2019-05-03T12:01:25.654Z,24.40
2019-05-03T12:03:35.487Z,18.43
2019-05-03T12:05:43.011Z,414.07
2019-05-03T12:07:47.551Z,531.93
2019-05-03T12:09:54.586Z,751.20
2019-05-03T12:11:59.775Z,254.37
2019-05-03T12:14:15.194Z,141.83
2019-05-03T12:17:08.618Z,142.37
2019-05-03T12:18:47.886Z,95.20
2019-05-03T12:20:41.206Z,139.53
2019-05-03T12:22:48.977Z,543.63
2019-05-03T12:24:55.718Z,399.87
2019-05-03T12:27:04.652Z,250.80
2019-05-03T12:29:12.413Z,176.70
2019-05-03T12:31:40.196Z,159.73
2019-05-03T12:33:41.334Z,123.70
2019-05-03T12:35:46.610Z,117.93
2019-05-03T12:37:51.642Z,110.53
2019-05-03T12:39:58.095Z,93.57
2019-05-03T12:42:05.663Z,96.53
2019-05-03T12:44:15.225Z,76.27
2019-05-03T12:46:28.754Z,68.50
2019-05-03T12:48:35.279Z,75.13
2019-05-03T12:50:39.551Z,69.80
2019-05-03T12:52:50.476Z,260.53
2019-05-03T12:54:50.282Z,282.23
2019-05-03T12:56:56.069Z,443.20
2019-05-03T12:59:06.760Z,270.13
2019-05-03T13:01:25.102Z,214.33
2019-05-03T13:03:34.387Z,170.17
2019-05-03T13:05:38.676Z,137.83
2019-05-03T13:07:49.077Z,150.87
2019-05-03T13:09:54.482Z,127.27
2019-05-03T13:11:59.420Z,107.97
2019-05-03T13:14:04.919Z,97.47
2019-05-03T13:16:15.304Z,91.07
2019-05-03T13:18:25.402Z,88.87
2019-05-03T13:20:31.943Z,76.90
2019-05-03T13:22:36.657Z,62.97
2019-05-03T13:24:41.620Z,54.40
2019-05-03T13:26:46.667Z,60.57
2019-05-03T13:28:50.994Z,118.13
2019-05-03T13:30:57.464Z,89.77
2019-05-03T13:33:02.969Z,225.43
2019-05-03T13:35:09.763Z,301.07
2019-05-03T13:37:19.805Z,192.23
2019-05-03T13:39:29.133Z,141.53
2019-05-03T13:41:34.919Z,116.57
2019-05-03T13:43:39.412Z,121.87
2019-05-03T13:45:46.500Z,194.33
2019-05-03T13:47:52.028Z,110.90
2019-05-03T13:49:58.238Z,456.70
2019-05-03T13:52:05.103Z,241.10
2019-05-03T13:54:11.725Z,150.67
2019-05-03T13:56:19.099Z,57.40
2019-05-03T13:58:36.432Z,261.40
2019-05-03T14:00:36.502Z,206.77
2019-05-03T14:02:41.076Z,147.90
2019-05-03T14:04:52.810Z,191.30
2019-05-03T14:06:58.192Z,150.03
2019-05-03T14:09:12.499Z,136.30
2019-05-03T14:11:21.975Z,139.33
2019-05-03T14:13:30.140Z,104.47
2019-05-03T14:15:38.063Z,85.50
2019-05-03T14:17:45.427Z,78.83
2019-05-03T14:20:01.942Z,79.90
2019-05-03T14:22:24.874Z,59.40
2019-05-03T14:24:35.154Z,64.93
2019-05-03T14:26:46.719Z,52.20
2019-05-03T14:29:05.541Z,44.07
2019-05-03T14:31:21.466Z,226.60
2019-05-03T14:33:30.554Z,66.67
2019-05-03T14:35:38.313Z,49.07
2019-05-03T14:37:45.883Z,539.00
2019-05-03T14:39:51.966Z,168.80
2019-05-03T14:41:57.588Z,479.20
2019-05-03T14:44:04.935Z,72.00
2019-05-03T14:46:29.135Z,37.17
2019-05-03T14:48:28.403Z,31.80
2019-05-03T14:50:35.069Z,189.40
2019-05-03T14:52:40.352Z,56.53
2019-05-03T14:54:46.479Z,29.27
2019-05-03T14:57:21.368Z,25.70
2019-05-03T14:59:55.110Z,169.93
2019-05-03T15:02:24.515Z,23.60
2019-05-03T15:04:30.721Z,23.20
2019-05-03T15:06:37.201Z,18.80
2019-05-03T15:08:42.377Z,80.07
2019-05-03T15:10:47.126Z,66.50
2019-05-03T15:12:51.816Z,22.33
2019-05-03T15:14:59.932Z,19.13
2019-05-03T15:17:06.190Z,18.37
2019-05-03T15:19:14.803Z,20.63
2019-05-03T15:21:25.228Z,14.53
2019-05-03T15:23:29.532Z,13.87
2019-05-03T15:25:34.570Z,14.30
2019-05-03T15:27:39.936Z,12.73
2019-05-03T15:29:44.843Z,12.43
2019-05-03T15:31:50.822Z,12.50
2019-05-03T15:33:55.694Z,624.87
2019-05-03T15:36:00.018Z,129.53
2019-05-03T15:38:08.383Z,253.80
2019-05-03T15:40:15.448Z,251.57
2019-05-03T15:42:23.136Z,130.33
2019-05-03T15:44:58.545Z,110.80
2019-05-03T15:47:14.835Z,82.80
2019-05-03T15:49:38.202Z,80.37
2019-05-03T15:51:44.488Z,55.77
2019-05-03T15:53:48.819Z,51.17
2019-05-03T15:55:55.105Z,61.63
2019-05-03T15:58:05.712Z,52.80
2019-05-03T16:00:12.474Z,44.20
2019-05-03T16:02:17.909Z,45.40
2019-05-03T16:04:27.571Z,39.80
2019-05-03T16:06:32.314Z,40.83
2019-05-03T16:08:36.641Z,29.70
2019-05-03T16:10:41.191Z,29.97
2019-05-03T16:12:48.784Z,32.70
2019-05-03T16:14:55.081Z,29.53
2019-05-03T16:16:58.938Z,23.40
2019-05-03T16:19:05.280Z,23.40
2019-05-03T16:21:14.641Z,23.97
2019-05-03T16:23:25.031Z,20.07
2019-05-03T16:25:29.644Z,17.87
2019-05-03T16:27:52.735Z,16.73
2019-05-03T16:29:57.759Z,14.63
2019-05-03T16:32:02.786Z,11.10
2019-05-03T16:34:08.935Z,12.43
2019-05-03T16:36:15.907Z,13.00
2019-05-03T16:38:27.316Z,12.10
2019-05-03T16:40:31.994Z,10.60
2019-05-03T16:42:36.218Z,9.10
2019-05-03T16:44:40.830Z,7.23
2019-05-03T16:46:45.059Z,7.70
2019-05-03T16:48:49.244Z,7.67
2019-05-03T16:50:54.512Z,7.50
2019-05-03T16:52:58.958Z,7.70
2019-05-03T16:55:03.429Z,6.67
2019-05-03T16:57:10.850Z,6.23
2019-05-03T16:59:24.716Z,6.47
2019-05-03T17:01:29.109Z,6.57
2019-05-03T17:03:50.064Z,5.40
2019-05-03T17:06:14.827Z,5.60
2019-05-03T17:08:45.949Z,5.03
2019-05-03T17:10:51.481Z,5.93
2019-05-03T17:12:56.972Z,5.77
2019-05-03T17:15:02.184Z,4.80
2019-05-03T17:17:08.723Z,4.40
2019-05-03T17:19:17.133Z,4.13
2019-05-03T17:21:25.612Z,4.33
2019-05-03T17:23:30.251Z,4.17
2019-05-03T17:25:35.158Z,4.87
2019-05-03T17:27:39.761Z,4.10
2019-05-03T17:29:44.548Z,4.20
2019-05-03T17:31:48.941Z,4.00
2019-05-03T17:33:56.225Z,4.43
2019-05-03T17:36:01.174Z,3.70
2019-05-03T17:38:06.481Z,3.80
2019-05-03T17:40:26.459Z,3.77
2019-05-03T17:42:48.447Z,3.43
2019-05-03T17:44:54.523Z,3.57
2019-05-03T17:46:58.945Z,3.17
2019-05-03T17:49:05.162Z,3.03
2019-05-03T17:51:15.012Z,3.57
2019-05-03T17:53:55.081Z,3.90
2019-05-03T17:56:15.151Z,2.97
2019-05-03T17:58:29.740Z,2.80
2019-05-03T18:00:52.676Z,2.77
2019-05-03T18:02:57.565Z,3.27
2019-05-03T18:05:25.080Z,3.43
2019-05-03T18:07:37.376Z,2.90
2019-05-03T18:09:42.072Z,2.90
2019-05-03T18:11:50.315Z,2.93
2019-05-03T18:13:55.165Z,2.57
2019-05-03T18:16:00.686Z,3.10
2019-05-03T18:18:06.201Z,3.10
2019-05-03T18:20:15.117Z,2.83
2019-05-03T18:22:24.564Z,2.67
2019-05-03T18:24:28.836Z,2.80
2019-05-03T18:26:35.390Z,2.90
2019-05-03T18:28:39.565Z,3.00
2019-05-03T18:30:46.754Z,3.20
2019-05-03T18:32:51.594Z,2.70
2019-05-03T18:34:56.364Z,3.10
2019-05-03T18:37:04.979Z,3.20
2019-05-03T18:39:11.880Z,2.97
2019-05-03T18:41:18.335Z,2.60
2019-05-03T18:43:38.451Z,2.70
2019-05-03T18:46:04.973Z,2.57
2019-05-03T18:48:14.464Z,2.97
2019-05-03T18:50:20.087Z,2.60
2019-05-03T18:52:26.827Z,2.70
2019-05-03T18:54:31.846Z,2.67
2019-05-03T18:56:35.987Z,3.40
2019-05-03T18:58:40.857Z,2.30
2019-05-03T19:00:45.365Z,3.00
2019-05-03T19:02:50.042Z,2.80
2019-05-03T19:04:55.682Z,3.87
2019-05-03T19:07:04.330Z,2.87
2019-05-03T19:09:35.455Z,2.80
2019-05-03T19:12:04.876Z,2.93
2019-05-03T19:14:12.622Z,3.37
2019-05-03T19:16:35.122Z,3.43
2019-05-03T19:18:39.959Z,3.13
2019-05-03T19:20:45.568Z,3.33
2019-05-03T19:22:50.157Z,3.50
2019-05-03T19:24:54.401Z,3.60
2019-05-03T19:26:58.574Z,3.33
2019-05-03T19:29:04.427Z,3.10
2019-05-03T19:31:10.068Z,2.87
2019-05-03T19:33:19.146Z,2.70
2019-05-03T19:35:27.653Z,4.23
2019-05-03T19:37:31.657Z,3.40
2019-05-03T19:39:36.157Z,3.83
2019-05-03T19:41:40.792Z,3.50
2019-05-03T19:43:44.991Z,3.80
2019-05-03T19:45:49.219Z,3.50
2019-05-03T19:47:55.220Z,3.73
2019-05-03T19:49:59.544Z,3.70
2019-05-03T19:52:05.218Z,3.53
2019-05-03T19:54:14.649Z,3.63
2019-05-03T19:56:26.705Z,4.10
2019-05-03T19:58:30.874Z,3.93
2019-05-03T20:00:46.230Z,4.17
2019-05-03T20:02:57.380Z,3.73
2019-05-03T20:05:21.487Z,3.70
2019-05-03T20:07:38.295Z,3.63
2019-05-03T20:09:44.608Z,3.20
2019-05-03T20:11:49.319Z,3.67
2019-05-03T20:13:55.212Z,3.17
2019-05-03T20:15:59.783Z,3.57
2019-05-03T20:18:08.143Z,3.40
2019-05-03T20:20:15.460Z,3.13
2019-05-03T20:22:25.483Z,4.07
2019-05-03T20:24:32.003Z,3.53
2019-05-03T20:26:37.550Z,3.40
2019-05-03T20:28:42.244Z,3.20
2019-05-03T20:30:46.512Z,3.90
2019-05-03T20:32:51.046Z,2.90
2019-05-03T20:34:56.966Z,2.80
2019-05-03T20:37:05.178Z,3.33
2019-05-03T20:39:12.427Z,3.07
2019-05-03T20:41:21.409Z,3.07
2019-05-03T20:43:44.523Z,3.73
2019-05-03T20:46:05.066Z,3.30
2019-05-03T20:48:14.515Z,2.70
2019-05-03T20:50:19.890Z,3.03
2019-05-03T20:52:27.450Z,3.43
2019-05-03T20:54:31.762Z,4.23
2019-05-03T20:56:36.505Z,3.23
2019-05-03T20:58:40.963Z,3.30
2019-05-03T21:00:45.452Z,3.80
2019-05-03T21:02:53.472Z,3.50
2019-05-03T21:04:56.211Z,3.57
2019-05-03T21:07:00.594Z,3.53
2019-05-03T21:09:10.406Z,4.10
2019-05-03T21:11:17.413Z,3.63
2019-05-03T21:13:26.458Z,4.50
2019-05-03T21:15:50.514Z,4.00
2019-05-03T21:18:31.193Z,3.63
2019-05-03T21:20:52.442Z,4.27
2019-05-03T21:22:57.045Z,3.80
2019-05-03T21:25:14.128Z,4.63
2019-05-03T21:27:24.674Z,4.73
2019-05-03T21:29:29.328Z,4.27
2019-05-03T21:31:35.336Z,4.03
2019-05-03T21:33:39.910Z,4.57
2019-05-03T21:35:45.203Z,4.50
2019-05-03T21:37:50.175Z,4.20
2019-05-03T21:39:55.186Z,4.37
2019-05-03T21:41:59.700Z,4.80
2019-05-03T21:44:05.237Z,4.20
2019-05-03T21:46:19.798Z,4.50
2019-05-03T21:48:31.918Z,5.00
2019-05-03T21:50:36.412Z,4.40
2019-05-03T21:52:40.975Z,3.90
2019-05-03T21:54:45.964Z,4.60
2019-05-03T21:56:50.872Z,4.80
2019-05-03T21:58:55.922Z,4.70
2019-05-03T22:01:05.069Z,3.93
2019-05-03T22:03:25.087Z,4.50
2019-05-03T22:05:27.282Z,4.30
2019-05-03T22:07:34.912Z,3.87
2019-05-03T22:09:40.600Z,4.20
2019-05-03T22:11:46.532Z,3.70
2019-05-03T22:13:54.251Z,4.23
2019-05-03T22:16:11.847Z,4.80
2019-05-03T22:18:26.063Z,3.83
2019-05-03T22:20:39.694Z,3.73
2019-05-03T22:22:50.293Z,4.10
2019-05-03T22:24:57.409Z,4.47
2019-05-03T22:27:09.618Z,4.60
2019-05-03T22:29:25.453Z,4.70
2019-05-03T22:31:30.432Z,4.90
2019-05-03T22:33:35.003Z,4.80
2019-05-03T22:35:39.556Z,4.57
2019-05-03T22:37:44.667Z,4.90
2019-05-03T22:39:48.997Z,4.90
2019-05-03T22:41:53.288Z,4.67
2019-05-03T22:43:57.523Z,4.60
2019-05-03T22:46:01.781Z,4.93
2019-05-03T22:48:06.233Z,5.13
2019-05-03T22:50:14.870Z,5.77
2019-05-03T22:52:25.729Z,5.20
2019-05-03T22:54:30.410Z,5.00
2019-05-03T22:56:35.586Z,4.97
2019-05-03T22:58:40.099Z,4.90
2019-05-03T23:00:44.609Z,5.13
2019-05-03T23:02:49.099Z,4.73
2019-05-03T23:04:55.395Z,4.50
2019-05-03T23:06:59.907Z,5.07
2019-05-03T23:09:06.805Z,4.67
2019-05-03T23:11:13.214Z,4.23
2019-05-03T23:13:18.340Z,4.30
2019-05-03T23:15:24.390Z,4.70
2019-05-03T23:17:28.979Z,4.37
2019-05-03T23:19:34.904Z,5.40
2019-05-03T23:21:51.674Z,3.87
2019-05-03T23:23:55.890Z,4.37
2019-05-03T23:26:00.801Z,4.50
2019-05-03T23:28:07.550Z,4.30
2019-05-03T23:30:15.386Z,4.60
2019-05-03T23:32:24.458Z,4.57
2019-05-03T23:34:29.085Z,4.70
2019-05-03T23:36:36.242Z,4.17
2019-05-03T23:38:40.143Z,3.90
2019-05-03T23:40:44.969Z,4.10
2019-05-03T23:42:49.470Z,4.23
2019-05-03T23:44:53.651Z,4.30
2019-05-03T23:47:15.029Z,4.83
2019-05-03T23:49:27.350Z,399.43
2019-05-03T23:51:49.688Z,414.13
2019-05-03T23:53:55.023Z,476.93
2019-05-03T23:56:04.549Z,335.00
2019-05-03T23:58:12.658Z,410.30
